KSQI Airport Information

Runway Information
Runway 07 Length 6500 ft width 150 ft
Elevation 647 ft Threshold 0 ft Heading 70
Runway 25 Length 6500 ft Width 150 ft
Elevation 647 ft Threshold 0 ft Heading 250
Runway 18 Length 3899 ft width 100 ft
Elevation 641 ft Threshold 0 ft Heading 180
Runway 36 Length 3899 ft Width 100 ft
Elevation 644 ft Threshold 0 ft Heading 0
Airport Frequencies
Type A/D Name ROCKFORD A Frequency 126 MHZ
Type AWOS Name AWOS 3 Frequency 119.175 MHZ
Type CLD Name ROCKFORD C Frequency 128 MHZ
Type UNIC Name CTAF/UNICO Frequency 123 MHZ
Airport Navaids
Airport Weather Information & NOTAM
ADDS - METARS form results

(0321 UTC 20 January 2019)
Data provider http://aviationweather.gov/metar/data/
 
METAR text: KSQI 200256Z AUTO 36010KT 10SM CLR M11/M14 A3017 RMK AO2 SLP239 T11111144 51017 FZRANO
Conditions at: KSQI (STERLING ROCKFAL, IL, US) observed 0256 UTC 20 January 2019
Temperature: -11.1°C (12°F)
Dewpoint: -14.4°C ( 6°F) [RH = 77%]
Pressure (altimeter): 30.17 inches Hg (1021.8 mb)
[Sea-level pressure: 1023.9 mb]
Winds: from the N (360 degrees) at 12 MPH (10 knots; 5.1 m/s)
Visibility: 10 or more miles (16+ km)
Ceiling: at least 12,000 feet AGL
Clouds: sky clear below 12,000 feet AGL
Weather: automated observation with no human augmentation;
there may or may not be significant weather present at this time